createdAt,value
2018-03-21T00:01:34.045Z,68.70
2018-03-21T00:04:00.323Z,68.60
2018-03-21T00:06:26.520Z,68.60
2018-03-21T00:08:52.771Z,68.60
2018-03-21T00:11:18.961Z,68.50
2018-03-21T00:13:45.239Z,68.90
2018-03-21T00:16:11.426Z,69.40
2018-03-21T00:18:37.608Z,70.10
2018-03-21T00:21:03.908Z,69.30
2018-03-21T00:23:30.109Z,68.90
2018-03-21T00:25:56.296Z,69.00
2018-03-21T00:28:23.373Z,68.60
2018-03-21T00:30:49.600Z,68.50
2018-03-21T00:33:15.824Z,68.60
2018-03-21T00:35:42.018Z,69.10
2018-03-21T00:38:08.196Z,68.50
2018-03-21T00:40:34.444Z,68.50
2018-03-21T00:43:00.634Z,68.40
2018-03-21T00:45:26.921Z,68.40
2018-03-21T00:47:53.134Z,68.40
2018-03-21T00:50:19.366Z,68.30
2018-03-21T00:52:45.557Z,68.30
2018-03-21T00:55:11.860Z,68.30
2018-03-21T00:57:38.835Z,68.30
2018-03-21T01:00:05.131Z,69.00
2018-03-21T01:02:31.419Z,68.40
2018-03-21T01:05:04.616Z,67.70
2018-03-21T01:07:30.889Z,68.50
2018-03-21T01:09:57.915Z,68.20
2018-03-21T01:12:24.129Z,68.20
2018-03-21T01:14:50.376Z,68.90
2018-03-21T01:17:16.626Z,68.50
2018-03-21T01:19:43.617Z,68.80
2018-03-21T01:22:09.802Z,68.80
2018-03-21T01:24:36.789Z,68.80
2018-03-21T01:27:02.974Z,68.80
2018-03-21T01:29:29.157Z,68.80
2018-03-21T01:31:55.442Z,69.60
2018-03-21T01:34:22.431Z,68.70
2018-03-21T01:36:48.703Z,68.70
2018-03-21T01:39:14.901Z,69.80
2018-03-21T01:41:41.116Z,68.70
2018-03-21T01:44:07.394Z,69.00
2018-03-21T01:46:34.435Z,69.40
2018-03-21T01:49:00.637Z,68.60
2018-03-21T01:51:26.827Z,68.60
2018-03-21T01:53:53.046Z,68.60
2018-03-21T01:56:19.278Z,68.60
2018-03-21T01:58:45.480Z,68.60
2018-03-21T02:01:12.425Z,68.60
2018-03-21T02:03:38.639Z,68.60
2018-03-21T02:06:04.896Z,68.50
2018-03-21T02:08:31.855Z,68.50
2018-03-21T02:10:58.083Z,68.50
2018-03-21T02:13:24.326Z,68.50
2018-03-21T02:15:50.569Z,68.50
2018-03-21T02:18:16.812Z,68.50
2018-03-21T02:20:42.997Z,68.40
2018-03-21T02:23:09.274Z,68.40
2018-03-21T02:25:35.474Z,68.40
2018-03-21T02:28:01.699Z,68.40
2018-03-21T02:30:27.917Z,68.60
2018-03-21T02:32:54.157Z,68.40
2018-03-21T02:35:20.354Z,68.60
2018-03-21T02:37:47.283Z,69.00
2018-03-21T02:40:13.538Z,69.10
2018-03-21T02:42:40.496Z,68.60
2018-03-21T02:45:06.930Z,68.60
2018-03-21T02:47:33.110Z,68.40
2018-03-21T02:49:59.313Z,68.40
2018-03-21T02:52:25.561Z,68.40
2018-03-21T02:54:51.824Z,68.20
2018-03-21T02:57:18.790Z,69.00
2018-03-21T02:59:45.008Z,68.90
2018-03-21T03:02:12.058Z,68.70
2018-03-21T03:04:38.987Z,68.70
2018-03-21T03:07:05.960Z,68.80
2018-03-21T03:09:32.248Z,68.70
2018-03-21T03:11:59.209Z,68.90
2018-03-21T03:14:26.132Z,68.60
2018-03-21T03:16:52.371Z,68.50
2018-03-21T03:19:18.580Z,68.50
2018-03-21T03:21:44.788Z,68.60
2018-03-21T03:24:11.008Z,69.20
2018-03-21T03:26:37.192Z,68.70
2018-03-21T03:29:03.407Z,69.10
2018-03-21T03:31:29.637Z,69.00
2018-03-21T03:33:55.846Z,69.20
2018-03-21T03:36:22.046Z,69.10
2018-03-21T03:38:48.236Z,68.90
2018-03-21T03:41:14.495Z,68.60
2018-03-21T03:43:40.723Z,69.30
2018-03-21T03:46:07.206Z,68.80
2018-03-21T03:48:33.390Z,69.00
2018-03-21T03:50:59.689Z,68.80
2018-03-21T03:53:25.906Z,69.80
2018-03-21T03:55:52.117Z,68.90
2018-03-21T03:58:18.305Z,69.60
2018-03-21T04:00:44.552Z,69.60
2018-03-21T04:03:10.786Z,68.90
2018-03-21T04:05:37.031Z,69.80
2018-03-21T04:08:03.324Z,69.10
2018-03-21T04:10:29.501Z,69.40
2018-03-21T04:12:56.499Z,70.80
2018-03-21T04:15:22.723Z,70.70
2018-03-21T04:17:48.905Z,70.40
2018-03-21T04:20:15.162Z,70.80
2018-03-21T04:22:41.438Z,69.90
2018-03-21T04:25:07.649Z,69.80
2018-03-21T04:27:33.832Z,69.80
2018-03-21T04:30:00.031Z,69.90
2018-03-21T04:32:26.217Z,70.90
2018-03-21T04:34:53.563Z,69.50
2018-03-21T04:37:20.548Z,70.50
2018-03-21T04:39:46.761Z,70.40
2018-03-21T04:42:12.984Z,70.30
2018-03-21T04:44:39.527Z,69.50
2018-03-21T04:47:07.892Z,70.10
2018-03-21T04:49:34.953Z,72.20
2018-03-21T04:52:01.607Z,72.10
2018-03-21T04:54:28.029Z,71.50
2018-03-21T04:56:55.402Z,72.00
2018-03-21T04:59:21.858Z,72.10
2018-03-21T05:01:48.102Z,72.10
2018-03-21T05:04:14.310Z,71.40
2018-03-21T05:06:40.561Z,71.70
2018-03-21T05:09:06.878Z,73.60
2018-03-21T05:11:33.094Z,72.90
2018-03-21T05:13:59.281Z,72.90
2018-03-21T05:16:25.462Z,72.10
2018-03-21T05:18:58.628Z,71.60
2018-03-21T05:21:24.834Z,72.30
2018-03-21T05:23:51.932Z,72.10
2018-03-21T05:26:18.158Z,72.00
2018-03-21T05:28:44.421Z,72.90
2018-03-21T05:31:10.628Z,75.00
2018-03-21T05:33:36.960Z,75.00
2018-03-21T05:36:03.192Z,72.90
2018-03-21T05:38:29.397Z,74.50
2018-03-21T05:40:55.592Z,74.40
2018-03-21T05:43:21.830Z,74.80
2018-03-21T05:45:48.864Z,73.00
2018-03-21T05:48:15.805Z,75.60
2018-03-21T05:50:42.106Z,75.50
2018-03-21T05:53:08.290Z,75.50
2018-03-21T05:55:34.514Z,75.80
2018-03-21T05:58:00.724Z,75.10
2018-03-21T06:00:27.675Z,74.90
2018-03-21T06:02:54.691Z,75.90
2018-03-21T06:05:21.629Z,77.50
2018-03-21T06:07:47.955Z,76.70
2018-03-21T06:10:14.143Z,76.90
2018-03-21T06:12:40.397Z,77.30
2018-03-21T06:15:06.782Z,76.30
2018-03-21T06:17:33.695Z,76.00
2018-03-21T06:20:00.354Z,75.90
2018-03-21T06:22:26.546Z,76.90
2018-03-21T06:24:52.827Z,75.40
2018-03-21T06:27:19.776Z,78.30
2018-03-21T06:29:46.889Z,77.20
2018-03-21T06:32:13.898Z,77.30
2018-03-21T06:34:40.104Z,77.20
2018-03-21T06:37:07.323Z,78.50
2018-03-21T06:39:33.536Z,77.70
2018-03-21T06:41:59.825Z,77.70
2018-03-21T06:44:26.040Z,75.50
2018-03-21T06:46:52.962Z,77.70
2018-03-21T06:49:19.187Z,77.70
2018-03-21T06:51:45.430Z,76.80
2018-03-21T06:54:11.677Z,76.50
2018-03-21T06:56:38.620Z,76.20
2018-03-21T06:59:05.588Z,75.80
2018-03-21T07:01:31.801Z,75.60
2018-03-21T07:03:58.812Z,72.90
2018-03-21T07:06:25.000Z,72.90
2018-03-21T07:08:51.280Z,75.60
2018-03-21T07:11:18.217Z,73.10
2018-03-21T07:13:56.678Z,73.00
2018-03-21T07:16:35.108Z,72.80
2018-03-21T07:19:01.354Z,72.90
2018-03-21T07:21:27.588Z,75.00
2018-03-21T07:23:53.868Z,73.60
2018-03-21T07:26:20.812Z,73.60
2018-03-21T07:28:47.863Z,71.30
2018-03-21T07:31:14.826Z,71.90
2018-03-21T07:33:41.029Z,71.80
2018-03-21T07:36:08.080Z,71.10
2018-03-21T07:38:35.112Z,73.20
2018-03-21T07:41:01.350Z,73.10
2018-03-21T07:43:28.296Z,70.20
2018-03-21T07:45:55.295Z,70.10
2018-03-21T07:48:21.621Z,70.00
2018-03-21T07:50:47.964Z,69.80
2018-03-21T07:53:14.172Z,69.70
2018-03-21T07:55:40.427Z,69.40
2018-03-21T07:58:06.837Z,70.30
2018-03-21T08:00:33.082Z,71.70
2018-03-21T08:02:59.274Z,69.50
2018-03-21T08:05:26.234Z,69.60
2018-03-21T08:07:52.437Z,69.60
2018-03-21T08:10:19.377Z,69.90
2018-03-21T08:12:46.344Z,69.80
2018-03-21T08:15:12.549Z,69.80
2018-03-21T08:17:38.814Z,68.90
2018-03-21T08:20:05.030Z,68.90
2018-03-21T08:22:31.201Z,68.60
2018-03-21T08:24:57.411Z,69.10
2018-03-21T08:27:23.608Z,69.30
2018-03-21T08:29:50.615Z,69.10
2018-03-21T08:32:16.852Z,69.10
2018-03-21T08:34:43.022Z,69.10
2018-03-21T08:37:09.204Z,68.60
2018-03-21T08:39:35.462Z,68.20
2018-03-21T08:42:02.485Z,68.60
2018-03-21T08:44:28.725Z,68.60
2018-03-21T08:46:55.661Z,68.80
2018-03-21T08:49:21.900Z,68.00
2018-03-21T08:51:48.096Z,68.10
2018-03-21T08:54:14.301Z,69.90
2018-03-21T08:56:40.588Z,68.50
2018-03-21T08:59:07.769Z,68.10
2018-03-21T09:01:34.054Z,68.00
2018-03-21T09:04:00.338Z,67.50
2018-03-21T09:06:26.541Z,69.30
2018-03-21T09:08:53.494Z,69.70
2018-03-21T09:11:19.782Z,69.70
2018-03-21T09:13:45.987Z,68.20
2018-03-21T09:16:12.508Z,69.40
2018-03-21T09:18:38.709Z,68.20
2018-03-21T09:21:05.645Z,68.00
2018-03-21T09:23:32.598Z,69.10
2018-03-21T09:25:59.594Z,68.00
2018-03-21T09:28:25.765Z,68.00
2018-03-21T09:30:52.065Z,70.20
2018-03-21T09:33:18.257Z,69.60
2018-03-21T09:35:44.479Z,67.90
2018-03-21T09:38:10.654Z,67.80
2018-03-21T09:40:36.941Z,67.70
2018-03-21T09:43:03.126Z,67.40
2018-03-21T09:45:29.354Z,68.00
2018-03-21T09:47:55.573Z,69.30
2018-03-21T09:50:21.828Z,67.50
2018-03-21T09:52:48.836Z,66.80
2018-03-21T09:55:15.112Z,66.70
2018-03-21T09:57:41.260Z,69.00
2018-03-21T10:00:07.736Z,68.10
2018-03-21T10:02:33.936Z,66.80
2018-03-21T10:05:00.123Z,66.80
2018-03-21T10:07:27.058Z,66.20
2018-03-21T10:09:53.436Z,66.20
2018-03-21T10:12:19.859Z,66.00
2018-03-21T10:14:46.125Z,66.60
2018-03-21T10:17:12.360Z,66.00
2018-03-21T10:19:38.639Z,66.50
2018-03-21T10:22:04.845Z,67.40
2018-03-21T10:24:31.054Z,66.50
2018-03-21T10:26:57.259Z,66.20
2018-03-21T10:29:23.543Z,66.20
2018-03-21T10:31:49.783Z,67.80
2018-03-21T10:34:16.844Z,67.00
2018-03-21T10:36:43.052Z,66.90
2018-03-21T10:39:09.283Z,67.30
2018-03-21T10:41:36.254Z,67.70
2018-03-21T10:44:02.554Z,67.90
2018-03-21T10:46:29.527Z,66.70
2018-03-21T10:48:55.742Z,66.60
2018-03-21T10:51:21.945Z,66.00
2018-03-21T10:53:48.140Z,65.70
2018-03-21T10:56:14.337Z,66.00
2018-03-21T10:58:40.554Z,66.40
2018-03-21T11:01:12.796Z,66.70
2018-03-21T11:03:39.090Z,66.60
2018-03-21T11:06:05.304Z,65.80
2018-03-21T11:08:31.502Z,64.50
2018-03-21T11:10:58.513Z,65.10
2018-03-21T11:13:25.468Z,65.60
2018-03-21T11:15:51.730Z,65.60
2018-03-21T11:18:17.937Z,65.60
2018-03-21T11:20:51.124Z,65.80
2018-03-21T11:23:17.334Z,64.70
2018-03-21T11:25:43.612Z,65.80
2018-03-21T11:28:09.742Z,65.00
2018-03-21T11:30:35.908Z,64.60
2018-03-21T11:33:02.138Z,65.20
2018-03-21T11:35:28.463Z,65.30
2018-03-21T11:37:54.711Z,64.80
2018-03-21T11:40:20.904Z,64.90
2018-03-21T11:42:47.275Z,65.50
2018-03-21T11:45:13.445Z,64.90
2018-03-21T11:47:39.725Z,65.00
2018-03-21T11:50:05.951Z,65.00
2018-03-21T11:52:32.220Z,66.30
2018-03-21T11:54:58.489Z,65.30
2018-03-21T11:57:24.723Z,64.20
2018-03-21T11:59:50.927Z,64.60
2018-03-21T12:02:17.227Z,64.40
2018-03-21T12:04:43.422Z,64.60
2018-03-21T12:07:09.732Z,64.10
2018-03-21T12:09:35.921Z,63.80
2018-03-21T12:12:02.970Z,63.90
2018-03-21T12:14:35.946Z,63.20
2018-03-21T12:17:02.159Z,63.60
2018-03-21T12:19:28.400Z,64.30
2018-03-21T12:21:54.622Z,63.70
2018-03-21T12:24:20.831Z,63.90
2018-03-21T12:26:47.104Z,63.80
2018-03-21T12:29:14.046Z,64.00
2018-03-21T12:31:40.231Z,63.30
2018-03-21T12:34:06.444Z,63.20
2018-03-21T12:36:32.665Z,63.20
2018-03-21T12:38:58.975Z,64.00
2018-03-21T12:41:25.904Z,63.50
2018-03-21T12:43:52.138Z,63.50
2018-03-21T12:46:19.160Z,62.90
2018-03-21T12:48:45.323Z,62.80
2018-03-21T12:51:12.302Z,62.90
2018-03-21T12:53:38.498Z,62.90
2018-03-21T12:56:04.729Z,62.80
2018-03-21T12:58:31.693Z,62.60
2018-03-21T13:00:57.900Z,62.50
2018-03-21T13:03:24.900Z,62.70
2018-03-21T13:05:51.246Z,62.70
2018-03-21T13:08:17.438Z,63.60
2018-03-21T13:10:43.658Z,62.60
2018-03-21T13:13:09.885Z,62.90
2018-03-21T13:15:36.102Z,62.50
2018-03-21T13:18:03.082Z,63.50
2018-03-21T13:20:29.350Z,63.50
2018-03-21T13:22:55.674Z,62.70
2018-03-21T13:25:21.882Z,62.50
2018-03-21T13:27:48.138Z,62.80
2018-03-21T13:30:14.311Z,62.50
2018-03-21T13:32:40.599Z,62.60
2018-03-21T13:35:06.772Z,62.50
2018-03-21T13:37:32.978Z,62.70
2018-03-21T13:39:59.207Z,62.80
2018-03-21T13:42:26.118Z,63.20
2018-03-21T13:44:52.367Z,63.10
2018-03-21T13:47:18.560Z,62.20
2018-03-21T13:49:44.730Z,62.70
2018-03-21T13:52:11.661Z,62.40
2018-03-21T13:54:37.848Z,62.40
2018-03-21T13:57:04.074Z,62.80
2018-03-21T13:59:30.290Z,62.80
2018-03-21T14:01:56.569Z,62.90
2018-03-21T14:04:22.847Z,63.30
2018-03-21T14:06:49.035Z,63.50
2018-03-21T14:09:15.244Z,63.30
2018-03-21T14:11:41.469Z,63.10
2018-03-21T14:14:07.929Z,64.00
2018-03-21T14:16:34.347Z,63.60
2018-03-21T14:19:00.574Z,63.60
2018-03-21T14:21:26.746Z,64.30
2018-03-21T14:23:53.765Z,63.70
2018-03-21T14:26:19.976Z,63.70
2018-03-21T14:28:46.162Z,64.00
2018-03-21T14:31:12.393Z,64.00
2018-03-21T14:33:38.626Z,63.90
2018-03-21T14:36:04.843Z,63.50
2018-03-21T14:38:31.112Z,64.40
2018-03-21T14:40:57.332Z,63.50
2018-03-21T14:43:23.572Z,63.90
2018-03-21T14:45:49.777Z,63.50
2018-03-21T14:48:15.954Z,64.00
2018-03-21T14:50:42.141Z,64.10
2018-03-21T14:53:08.324Z,64.20
2018-03-21T14:55:35.321Z,64.80
2018-03-21T14:58:01.508Z,64.20
2018-03-21T15:00:28.474Z,64.50
2018-03-21T15:02:54.675Z,64.50
2018-03-21T15:05:21.641Z,64.70
2018-03-21T15:07:47.849Z,64.50
2018-03-21T15:10:14.814Z,65.30
2018-03-21T15:12:41.861Z,64.70
2018-03-21T15:15:08.807Z,65.00
2018-03-21T15:17:35.048Z,65.00
2018-03-21T15:20:01.296Z,65.50
2018-03-21T15:22:27.600Z,66.00
2018-03-21T15:24:53.843Z,66.80
2018-03-21T15:27:20.136Z,66.40
2018-03-21T15:29:46.306Z,66.80
2018-03-21T15:32:12.542Z,66.60
2018-03-21T15:34:38.751Z,66.80
2018-03-21T15:37:05.056Z,66.70
2018-03-21T15:39:31.989Z,67.00
2018-03-21T15:41:58.926Z,66.80
2018-03-21T15:44:25.210Z,66.70
2018-03-21T15:46:51.414Z,67.00
2018-03-21T15:49:18.385Z,67.30
2018-03-21T15:51:44.602Z,67.30
2018-03-21T15:54:10.780Z,67.80
2018-03-21T15:56:36.986Z,67.60
2018-03-21T15:59:03.216Z,67.90
2018-03-21T16:01:29.418Z,68.00
2018-03-21T16:03:55.671Z,68.10
2018-03-21T16:06:21.868Z,68.00
2018-03-21T16:08:48.162Z,68.30
2018-03-21T16:11:14.411Z,68.50
2018-03-21T16:13:41.374Z,68.50
2018-03-21T16:16:07.876Z,68.60
2018-03-21T16:18:34.108Z,68.70
2018-03-21T16:21:00.355Z,68.70
2018-03-21T16:23:27.301Z,68.70
2018-03-21T16:25:54.287Z,69.00
2018-03-21T16:28:20.626Z,68.90
2018-03-21T16:30:46.862Z,69.10
2018-03-21T16:33:13.073Z,69.00
2018-03-21T16:35:39.290Z,69.20
2018-03-21T16:38:05.561Z,69.30
2018-03-21T16:40:31.766Z,69.40
2018-03-21T16:42:58.183Z,69.30
2018-03-21T16:45:24.378Z,69.70
2018-03-21T16:47:51.340Z,70.00
2018-03-21T16:50:17.524Z,70.00
2018-03-21T16:52:43.785Z,70.00
2018-03-21T16:55:10.720Z,70.10
2018-03-21T16:57:37.725Z,71.10
2018-03-21T17:00:04.050Z,70.30
2018-03-21T17:02:30.269Z,70.50
2018-03-21T17:04:56.497Z,70.50
2018-03-21T17:07:22.665Z,70.80
2018-03-21T17:09:48.846Z,70.80
2018-03-21T17:12:15.061Z,70.70
2018-03-21T17:14:42.031Z,71.10
2018-03-21T17:17:08.240Z,71.10
2018-03-21T17:19:34.437Z,71.30
2018-03-21T17:22:00.649Z,70.90
2018-03-21T17:24:26.849Z,71.90
2018-03-21T17:26:53.042Z,71.60
2018-03-21T17:29:27.077Z,71.80
2018-03-21T17:31:53.401Z,71.80
2018-03-21T17:34:19.588Z,72.10
2018-03-21T17:36:45.772Z,71.80
2018-03-21T17:39:11.993Z,72.00
2018-03-21T17:41:38.238Z,72.20
2018-03-21T17:44:04.436Z,72.30
2018-03-21T17:46:30.639Z,72.30
2018-03-21T17:48:57.624Z,73.50
2018-03-21T17:51:23.839Z,72.40
2018-03-21T17:53:50.810Z,72.60
2018-03-21T17:56:17.023Z,72.40
2018-03-21T17:58:43.321Z,72.70
2018-03-21T18:01:10.264Z,72.80
2018-03-21T18:03:36.502Z,72.80
2018-03-21T18:06:03.525Z,73.20
2018-03-21T18:08:29.705Z,73.10
2018-03-21T18:10:56.016Z,73.30
2018-03-21T18:13:22.956Z,73.30
2018-03-21T18:15:49.897Z,73.40
2018-03-21T18:18:16.987Z,73.60
2018-03-21T18:20:43.323Z,73.60
2018-03-21T18:23:09.534Z,73.60
2018-03-21T18:25:35.804Z,73.70
2018-03-21T18:28:02.115Z,73.90
2018-03-21T18:30:28.320Z,73.80
2018-03-21T18:32:54.557Z,73.90
2018-03-21T18:35:20.758Z,73.60
2018-03-21T18:37:47.716Z,74.20
2018-03-21T18:40:13.890Z,74.20
2018-03-21T18:42:40.074Z,73.80
2018-03-21T18:45:06.313Z,73.90
2018-03-21T18:47:32.535Z,73.30
2018-03-21T18:49:58.742Z,73.90
2018-03-21T18:52:25.684Z,73.90
2018-03-21T18:54:51.995Z,73.80
2018-03-21T18:57:18.165Z,73.80
2018-03-21T18:59:44.422Z,73.90
2018-03-21T19:02:10.712Z,73.90
2018-03-21T19:04:37.731Z,73.80
2018-03-21T19:07:03.922Z,73.80
2018-03-21T19:09:30.167Z,73.70
2018-03-21T19:11:56.352Z,73.20
2018-03-21T19:14:23.288Z,73.20
2018-03-21T19:16:50.270Z,73.20
2018-03-21T19:19:16.476Z,73.10
2018-03-21T19:21:43.460Z,73.00
2018-03-21T19:24:09.672Z,73.00
2018-03-21T19:26:35.918Z,73.10
2018-03-21T19:29:14.691Z,73.10
2018-03-21T19:31:42.079Z,73.20
2018-03-21T19:34:08.303Z,73.40
2018-03-21T19:36:34.517Z,73.30
2018-03-21T19:39:01.476Z,73.50
2018-03-21T19:41:27.721Z,73.30
2018-03-21T19:43:53.932Z,73.10
2018-03-21T19:46:20.176Z,73.80
2018-03-21T19:48:46.516Z,73.40
2018-03-21T19:51:12.792Z,73.40
2018-03-21T19:53:38.936Z,73.40
2018-03-21T19:56:05.990Z,73.20
2018-03-21T19:58:32.957Z,73.20
2018-03-21T20:00:59.228Z,73.20
2018-03-21T20:03:25.434Z,73.70
2018-03-21T20:05:51.705Z,73.70
2018-03-21T20:08:17.946Z,73.70
2018-03-21T20:10:44.916Z,73.60
2018-03-21T20:13:11.146Z,73.60
2018-03-21T20:15:37.389Z,73.60
2018-03-21T20:18:03.607Z,74.20
2018-03-21T20:20:29.821Z,73.70
2018-03-21T20:22:56.035Z,74.10
2018-03-21T20:25:22.975Z,74.10
2018-03-21T20:27:49.189Z,74.00
2018-03-21T20:30:15.382Z,74.40
2018-03-21T20:32:41.607Z,74.50
2018-03-21T20:35:08.026Z,74.80
2018-03-21T20:37:34.247Z,74.30
2018-03-21T20:40:00.434Z,74.40
2018-03-21T20:42:26.689Z,74.50
2018-03-21T20:44:53.665Z,74.50
2018-03-21T20:47:19.879Z,74.50
2018-03-21T20:49:46.051Z,74.40
2018-03-21T20:52:12.285Z,74.20
2018-03-21T20:54:38.503Z,73.90
2018-03-21T20:57:04.682Z,74.30
2018-03-21T20:59:31.606Z,74.30
2018-03-21T21:01:57.801Z,74.30
2018-03-21T21:04:24.799Z,74.30
2018-03-21T21:06:51.756Z,74.00
2018-03-21T21:09:17.957Z,74.80
2018-03-21T21:11:44.950Z,73.50
2018-03-21T21:14:11.153Z,74.10
2018-03-21T21:16:38.085Z,74.00
2018-03-21T21:19:05.055Z,73.70
2018-03-21T21:21:31.258Z,73.70
2018-03-21T21:23:57.499Z,73.70
2018-03-21T21:26:24.433Z,73.50
2018-03-21T21:28:50.642Z,73.50
2018-03-21T21:31:16.849Z,73.50
2018-03-21T21:33:43.820Z,73.20
2018-03-21T21:36:10.010Z,73.20
2018-03-21T21:38:36.226Z,73.20
2018-03-21T21:41:02.414Z,73.20
2018-03-21T21:43:28.630Z,72.90
2018-03-21T21:45:54.869Z,72.90
2018-03-21T21:48:21.087Z,72.90
2018-03-21T21:50:47.339Z,72.90
2018-03-21T21:53:14.254Z,72.90
2018-03-21T21:55:42.218Z,72.80
2018-03-21T21:58:08.430Z,72.80
2018-03-21T22:00:34.698Z,72.80
2018-03-21T22:03:00.895Z,72.80
2018-03-21T22:05:27.148Z,72.70
2018-03-21T22:07:53.412Z,72.70
2018-03-21T22:10:20.368Z,72.40
2018-03-21T22:12:46.562Z,72.40
2018-03-21T22:15:12.772Z,72.40
2018-03-21T22:17:38.965Z,72.30
2018-03-21T22:20:05.176Z,72.30
2018-03-21T22:22:31.383Z,72.40
2018-03-21T22:24:58.349Z,72.40
2018-03-21T22:27:24.641Z,72.40
2018-03-21T22:29:50.833Z,72.50
2018-03-21T22:32:17.052Z,72.70
2018-03-21T22:34:43.250Z,72.50
2018-03-21T22:37:10.313Z,72.70
2018-03-21T22:39:37.255Z,72.80
2018-03-21T22:42:04.208Z,72.70
2018-03-21T22:44:30.377Z,72.70
2018-03-21T22:46:56.578Z,72.70
2018-03-21T22:49:22.765Z,72.70
2018-03-21T22:51:48.986Z,72.70
2018-03-21T22:54:15.184Z,72.70
2018-03-21T22:56:41.385Z,72.70
2018-03-21T22:59:07.736Z,72.70
2018-03-21T23:01:33.913Z,72.70
2018-03-21T23:04:00.129Z,72.70
2018-03-21T23:06:26.326Z,72.70
2018-03-21T23:08:52.589Z,72.70
2018-03-21T23:11:18.764Z,72.70
2018-03-21T23:13:45.044Z,72.60
2018-03-21T23:16:11.218Z,72.40
2018-03-21T23:18:37.452Z,72.40
2018-03-21T23:21:03.705Z,72.10
2018-03-21T23:23:30.367Z,72.00
2018-03-21T23:25:56.560Z,71.90
2018-03-21T23:28:22.824Z,72.00
2018-03-21T23:30:49.000Z,71.90
2018-03-21T23:33:15.193Z,71.90
2018-03-21T23:35:41.400Z,71.90
2018-03-21T23:38:07.772Z,72.70
2018-03-21T23:40:34.093Z,71.80
2018-03-21T23:43:01.019Z,71.90
2018-03-21T23:45:27.215Z,71.90
2018-03-21T23:47:53.410Z,71.90
2018-03-21T23:50:19.602Z,71.90
2018-03-21T23:52:45.834Z,71.90
2018-03-21T23:55:12.054Z,71.90
2018-03-21T23:57:38.993Z,71.80
